SAS2704 LGIR-LGAV
Flight info
| Callsign | SAS2704 |
|---|---|
| Flight time | 0h 36m |
| Altitude | 24000 |
| Route | EPALO1V EPALO UM749 MIL L617 SOREV SOREV2C |
| Aircraft | B736/M-SDE2E3FGHIRWXY/LB1 |
Departure
| Time | 2026-05-06 08:27 |
|---|---|
| Airport | Heraklion International Nikos Kazantzakis Airport (LGIR) |
Arrival
| Time | 2026-05-06 09:03 |
|---|---|
| Airport | Athens Eleftherios Venizelos International Airport (LGAV) |
| Time | Latitude | Longitude | Altitude | Speed | Heading |
|---|---|---|---|---|---|
| 2026-05-06 08:15 | 35.33818 | 25.17849 | 88 ft | 0 kts | 184° |
| 2026-05-06 08:18 | 35.33822 | 25.17849 | 88 ft | 2 kts | 183° |
| 2026-05-06 08:18 | 35.33841 | 25.17850 | 89 ft | 3 kts | 177° |
| 2026-05-06 08:19 | 35.33861 | 25.17847 | 91 ft | 3 kts | 165° |
| 2026-05-06 08:19 | 35.33879 | 25.17839 | 92 ft | 3 kts | 141° |
| 2026-05-06 08:19 | 35.33889 | 25.17824 | 88 ft | 2 kts | 99° |
| 2026-05-06 08:19 | 35.33890 | 25.17820 | 88 ft | 1 kts | 95° |
| 2026-05-06 08:23 | 35.33890 | 25.17825 | 90 ft | 3 kts | 95° |
| 2026-05-06 08:23 | 35.33884 | 25.17912 | 91 ft | 17 kts | 95° |
| 2026-05-06 08:23 | 35.33871 | 25.18098 | 93 ft | 23 kts | 94° |
| 2026-05-06 08:24 | 35.33857 | 25.18288 | 96 ft | 22 kts | 96° |
| 2026-05-06 08:24 | 35.33845 | 25.18475 | 93 ft | 22 kts | 96° |
| 2026-05-06 08:24 | 35.33829 | 25.18657 | 91 ft | 21 kts | 95° |
| 2026-05-06 08:24 | 35.33818 | 25.18834 | 90 ft | 20 kts | 94° |
| 2026-05-06 08:25 | 35.33816 | 25.18870 | 90 ft | 0 kts | 96° |
| 2026-05-06 08:25 | 35.33816 | 25.18872 | 90 ft | 1 kts | 95° |
| 2026-05-06 08:25 | 35.33820 | 25.18929 | 90 ft | 13 kts | 72° |
| 2026-05-06 08:26 | 35.33880 | 25.18951 | 87 ft | 13 kts | 334° |
| 2026-05-06 08:26 | 35.33920 | 25.18829 | 87 ft | 26 kts | 276° |
| 2026-05-06 08:26 | 35.33958 | 25.18255 | 90 ft | 108 kts | 274° |
| 2026-05-06 08:26 | 35.34035 | 25.17089 | 253 ft | 156 kts | 275° |
| 2026-05-06 08:27 | 35.34146 | 25.15697 | 962 ft | 172 kts | 283° |
| 2026-05-06 08:27 | 35.34584 | 25.14308 | 1818 ft | 181 kts | 308° |
| 2026-05-06 08:27 | 35.35577 | 25.13420 | 2787 ft | 173 kts | 343° |
| 2026-05-06 08:27 | 35.36768 | 25.13189 | 3585 ft | 185 kts | 351° |
| 2026-05-06 08:28 | 35.38097 | 25.12930 | 3859 ft | 215 kts | 349° |
| 2026-05-06 08:28 | 35.39677 | 25.12554 | 4105 ft | 248 kts | 347° |
| 2026-05-06 08:28 | 35.41416 | 25.12076 | 4844 ft | 259 kts | 346° |
| 2026-05-06 08:28 | 35.43161 | 25.11546 | 5741 ft | 263 kts | 346° |
| 2026-05-06 08:29 | 35.44932 | 25.10966 | 6720 ft | 265 kts | 346° |
| 2026-05-06 08:29 | 35.46715 | 25.10353 | 7712 ft | 268 kts | 345° |
| 2026-05-06 08:29 | 35.48518 | 25.09710 | 8755 ft | 271 kts | 343° |
| 2026-05-06 08:29 | 35.50332 | 25.09049 | 9833 ft | 274 kts | 343° |
| 2026-05-06 08:30 | 35.52177 | 25.08365 | 10731 ft | 284 kts | 342° |
| 2026-05-06 08:30 | 35.54160 | 25.07623 | 11111 ft | 311 kts | 342° |
| 2026-05-06 08:30 | 35.56264 | 25.06832 | 11926 ft | 319 kts | 342° |
| 2026-05-06 08:30 | 35.58394 | 25.06027 | 12973 ft | 321 kts | 342° |
| 2026-05-06 08:31 | 35.60537 | 25.05216 | 14041 ft | 324 kts | 341° |
| 2026-05-06 08:31 | 35.62703 | 25.04394 | 14961 ft | 328 kts | 341° |
| 2026-05-06 08:31 | 35.64905 | 25.03558 | 15868 ft | 333 kts | 341° |
| 2026-05-06 08:31 | 35.67136 | 25.02710 | 16809 ft | 338 kts | 341° |
| 2026-05-06 08:32 | 35.69392 | 25.01852 | 17752 ft | 342 kts | 341° |
| 2026-05-06 08:32 | 35.71682 | 25.00977 | 18640 ft | 347 kts | 340° |
| 2026-05-06 08:32 | 35.73971 | 24.99983 | 19467 ft | 350 kts | 338° |
| 2026-05-06 08:32 | 35.76259 | 24.98904 | 20310 ft | 354 kts | 337° |
| 2026-05-06 08:33 | 35.78537 | 24.97807 | 21143 ft | 358 kts | 336° |
| 2026-05-06 08:33 | 35.80868 | 24.96686 | 21955 ft | 362 kts | 336° |
| 2026-05-06 08:33 | 35.83228 | 24.95558 | 22803 ft | 364 kts | 336° |
| 2026-05-06 08:33 | 35.85589 | 24.94438 | 23723 ft | 365 kts | 336° |
| 2026-05-06 08:34 | 35.87944 | 24.93324 | 24035 ft | 359 kts | 336° |
| 2026-05-06 08:34 | 35.92653 | 24.91101 | 24108 ft | 362 kts | 336° |
| 2026-05-06 08:34 | 35.95009 | 24.89989 | 24121 ft | 361 kts | 336° |
| 2026-05-06 08:35 | 35.97322 | 24.88896 | 24123 ft | 361 kts | 336° |
| 2026-05-06 08:35 | 35.99672 | 24.87785 | 24122 ft | 361 kts | 336° |
| 2026-05-06 08:35 | 36.02029 | 24.86670 | 24120 ft | 361 kts | 336° |
| 2026-05-06 08:35 | 36.04373 | 24.85561 | 24120 ft | 360 kts | 336° |
| 2026-05-06 08:36 | 36.06718 | 24.84450 | 24118 ft | 360 kts | 336° |
| 2026-05-06 08:36 | 36.09031 | 24.83355 | 24117 ft | 360 kts | 336° |
| 2026-05-06 08:36 | 36.11377 | 24.82245 | 24118 ft | 361 kts | 336° |
| 2026-05-06 08:36 | 36.13722 | 24.81133 | 24119 ft | 361 kts | 336° |
| 2026-05-06 08:37 | 36.16068 | 24.80021 | 24118 ft | 361 kts | 336° |
| 2026-05-06 08:37 | 36.18421 | 24.78904 | 24112 ft | 361 kts | 336° |
| 2026-05-06 08:37 | 36.20772 | 24.77788 | 24117 ft | 361 kts | 336° |
| 2026-05-06 08:37 | 36.23119 | 24.76672 | 24117 ft | 361 kts | 336° |
| 2026-05-06 08:38 | 36.25436 | 24.75570 | 24117 ft | 361 kts | 336° |
| 2026-05-06 08:38 | 36.27780 | 24.74455 | 24113 ft | 361 kts | 336° |
| 2026-05-06 08:38 | 36.30130 | 24.73336 | 24111 ft | 361 kts | 336° |
| 2026-05-06 08:38 | 36.32477 | 24.72218 | 24110 ft | 361 kts | 336° |
| 2026-05-06 08:39 | 36.34823 | 24.71099 | 24113 ft | 361 kts | 336° |
| 2026-05-06 08:39 | 36.37175 | 24.69977 | 24109 ft | 361 kts | 336° |
| 2026-05-06 08:39 | 36.39518 | 24.68858 | 24111 ft | 363 kts | 336° |
| 2026-05-06 08:39 | 36.41938 | 24.67699 | 24125 ft | 381 kts | 336° |
| 2026-05-06 08:40 | 36.44441 | 24.66498 | 24124 ft | 398 kts | 336° |
| 2026-05-06 08:40 | 36.47068 | 24.65239 | 24127 ft | 412 kts | 336° |
| 2026-05-06 08:40 | 36.49788 | 24.63937 | 24124 ft | 423 kts | 336° |
| 2026-05-06 08:40 | 36.52559 | 24.62610 | 24119 ft | 429 kts | 336° |
| 2026-05-06 08:41 | 36.55346 | 24.61277 | 24101 ft | 427 kts | 336° |
| 2026-05-06 08:41 | 36.58109 | 24.59955 | 24098 ft | 423 kts | 336° |
| 2026-05-06 08:41 | 36.60862 | 24.58633 | 24114 ft | 425 kts | 336° |
| 2026-05-06 08:41 | 36.63628 | 24.57304 | 24109 ft | 426 kts | 336° |
| 2026-05-06 08:42 | 36.66390 | 24.55975 | 24106 ft | 425 kts | 336° |
| 2026-05-06 08:42 | 36.69152 | 24.54645 | 24106 ft | 425 kts | 336° |
| 2026-05-06 08:42 | 36.71908 | 24.53318 | 24111 ft | 424 kts | 336° |
| 2026-05-06 08:42 | 36.74635 | 24.52039 | 24103 ft | 425 kts | 339° |
| 2026-05-06 08:43 | 36.77505 | 24.51104 | 24110 ft | 428 kts | 345° |
| 2026-05-06 08:43 | 36.80433 | 24.50329 | 24105 ft | 428 kts | 345° |
| 2026-05-06 08:43 | 36.83346 | 24.49572 | 24097 ft | 423 kts | 345° |
| 2026-05-06 08:43 | 36.86150 | 24.48841 | 24089 ft | 399 kts | 345° |
| 2026-05-06 08:44 | 36.88770 | 24.48148 | 24088 ft | 377 kts | 345° |
| 2026-05-06 08:44 | 36.91279 | 24.47475 | 24088 ft | 362 kts | 345° |
| 2026-05-06 08:44 | 36.93750 | 24.46802 | 23836 ft | 364 kts | 344° |
| 2026-05-06 08:44 | 36.96216 | 24.46128 | 23384 ft | 361 kts | 344° |
| 2026-05-06 08:45 | 36.98620 | 24.45470 | 22883 ft | 355 kts | 344° |
| 2026-05-06 08:45 | 37.01029 | 24.44813 | 22353 ft | 350 kts | 345° |
| 2026-05-06 08:45 | 37.03395 | 24.44167 | 21834 ft | 346 kts | 345° |
| 2026-05-06 08:45 | 37.05712 | 24.43390 | 21300 ft | 341 kts | 335° |
| 2026-05-06 08:46 | 37.07721 | 24.41949 | 20847 ft | 334 kts | 323° |
| 2026-05-06 08:46 | 37.09552 | 24.40196 | 20476 ft | 327 kts | 321° |
| 2026-05-06 08:46 | 37.11336 | 24.38394 | 19865 ft | 328 kts | 320° |
| 2026-05-06 08:46 | 37.13035 | 24.36652 | 19410 ft | 326 kts | 320° |
| 2026-05-06 08:47 | 37.14780 | 24.34850 | 18967 ft | 323 kts | 320° |
| 2026-05-06 08:47 | 37.16501 | 24.33062 | 18568 ft | 319 kts | 320° |
| 2026-05-06 08:47 | 37.18196 | 24.31290 | 18137 ft | 316 kts | 320° |
| 2026-05-06 08:47 | 37.19883 | 24.29522 | 17614 ft | 321 kts | 320° |
| 2026-05-06 08:48 | 37.21603 | 24.27716 | 17184 ft | 323 kts | 320° |
| 2026-05-06 08:48 | 37.23331 | 24.25901 | 16798 ft | 320 kts | 320° |
| 2026-05-06 08:48 | 37.25003 | 24.24146 | 16418 ft | 314 kts | 320° |
| 2026-05-06 08:48 | 37.26668 | 24.22399 | 16044 ft | 309 kts | 320° |
| 2026-05-06 08:49 | 37.28317 | 24.20669 | 15666 ft | 307 kts | 320° |
| 2026-05-06 08:49 | 37.29956 | 24.18952 | 15301 ft | 306 kts | 320° |
| 2026-05-06 08:49 | 37.31570 | 24.17262 | 14945 ft | 305 kts | 320° |
| 2026-05-06 08:49 | 37.33208 | 24.15549 | 14589 ft | 305 kts | 320° |
| 2026-05-06 08:50 | 37.34838 | 24.13846 | 14232 ft | 304 kts | 320° |
| 2026-05-06 08:50 | 37.36469 | 24.12145 | 13877 ft | 304 kts | 320° |
| 2026-05-06 08:50 | 37.38095 | 24.10451 | 13483 ft | 303 kts | 320° |
| 2026-05-06 08:50 | 37.39720 | 24.08757 | 13085 ft | 303 kts | 320° |
| 2026-05-06 08:51 | 37.41335 | 24.07073 | 12697 ft | 299 kts | 320° |
| 2026-05-06 08:51 | 37.42923 | 24.05418 | 12309 ft | 294 kts | 320° |
| 2026-05-06 08:51 | 37.44472 | 24.03803 | 11694 ft | 291 kts | 320° |
| 2026-05-06 08:51 | 37.46007 | 24.02203 | 11201 ft | 283 kts | 320° |
| 2026-05-06 08:52 | 37.47504 | 24.00642 | 10710 ft | 276 kts | 320° |
| 2026-05-06 08:52 | 37.48971 | 23.99115 | 10225 ft | 271 kts | 320° |
| 2026-05-06 08:52 | 37.50409 | 23.97619 | 9727 ft | 266 kts | 320° |
| 2026-05-06 08:52 | 37.51830 | 23.96143 | 9197 ft | 262 kts | 320° |
| 2026-05-06 08:53 | 37.53232 | 23.94687 | 8683 ft | 259 kts | 320° |
| 2026-05-06 08:53 | 37.54615 | 23.93252 | 8180 ft | 256 kts | 320° |
| 2026-05-06 08:53 | 37.55987 | 23.91829 | 7679 ft | 254 kts | 320° |
| 2026-05-06 08:53 | 37.57353 | 23.90414 | 7187 ft | 252 kts | 320° |
| 2026-05-06 08:54 | 37.58691 | 23.89031 | 6702 ft | 251 kts | 320° |
| 2026-05-06 08:54 | 37.60041 | 23.87636 | 6218 ft | 250 kts | 320° |
| 2026-05-06 08:54 | 37.61386 | 23.86248 | 5707 ft | 249 kts | 320° |
| 2026-05-06 08:54 | 37.62729 | 23.84868 | 5216 ft | 247 kts | 320° |
| 2026-05-06 08:55 | 37.64048 | 23.83519 | 4733 ft | 246 kts | 320° |
| 2026-05-06 08:55 | 37.65383 | 23.82159 | 4225 ft | 245 kts | 320° |
| 2026-05-06 08:55 | 37.66707 | 23.80813 | 3735 ft | 244 kts | 320° |
| 2026-05-06 08:55 | 37.67999 | 23.79503 | 3386 ft | 231 kts | 320° |
| 2026-05-06 08:56 | 37.69183 | 23.78306 | 3041 ft | 220 kts | 320° |
| 2026-05-06 08:56 | 37.69971 | 23.77560 | 2988 ft | 209 kts | 328° |
| 2026-05-06 08:56 | 37.71299 | 23.77059 | 2965 ft | 192 kts | 358° |
| 2026-05-06 08:56 | 37.72979 | 23.77281 | 2966 ft | 179 kts | 5° |
| 2026-05-06 08:57 | 37.74178 | 23.77468 | 2960 ft | 167 kts | 5° |
| 2026-05-06 08:57 | 37.74940 | 23.77589 | 2958 ft | 159 kts | 5° |
| 2026-05-06 08:57 | 37.76039 | 23.77763 | 2990 ft | 161 kts | 5° |
| 2026-05-06 08:57 | 37.77141 | 23.78005 | 2967 ft | 161 kts | 21° |
| 2026-05-06 08:58 | 37.78079 | 23.78728 | 2985 ft | 158 kts | 29° |
| 2026-05-06 08:58 | 37.79009 | 23.79469 | 2996 ft | 157 kts | 32° |
| 2026-05-06 08:58 | 37.79878 | 23.80234 | 3019 ft | 147 kts | 34° |
| 2026-05-06 08:58 | 37.80674 | 23.80971 | 2972 ft | 136 kts | 34° |
| 2026-05-06 08:59 | 37.81428 | 23.81666 | 2924 ft | 136 kts | 33° |
| 2026-05-06 08:59 | 37.82210 | 23.82376 | 2836 ft | 144 kts | 35° |
| 2026-05-06 08:59 | 37.83055 | 23.83175 | 2540 ft | 152 kts | 36° |
| 2026-05-06 08:59 | 37.83868 | 23.83951 | 2322 ft | 140 kts | 35° |
| 2026-05-06 09:00 | 37.84619 | 23.84669 | 2123 ft | 132 kts | 36° |
| 2026-05-06 09:00 | 37.85350 | 23.85372 | 2000 ft | 138 kts | 36° |
| 2026-05-06 09:00 | 37.86120 | 23.86140 | 1797 ft | 142 kts | 37° |
| 2026-05-06 09:00 | 37.86884 | 23.86890 | 1616 ft | 137 kts | 36° |
| 2026-05-06 09:01 | 37.87629 | 23.87575 | 1432 ft | 128 kts | 35° |
| 2026-05-06 09:01 | 37.88343 | 23.88227 | 1204 ft | 126 kts | 37° |
| 2026-05-06 09:01 | 37.89050 | 23.88924 | 1068 ft | 131 kts | 40° |
| 2026-05-06 09:01 | 37.89763 | 23.89619 | 927 ft | 130 kts | 39° |
| 2026-05-06 09:02 | 37.90492 | 23.90301 | 773 ft | 128 kts | 38° |
| 2026-05-06 09:02 | 37.91192 | 23.90978 | 584 ft | 128 kts | 40° |
| 2026-05-06 09:02 | 37.91913 | 23.91678 | 410 ft | 130 kts | 37° |
| 2026-05-06 09:02 | 37.92619 | 23.92340 | 276 ft | 121 kts | 37° |
| 2026-05-06 09:03 | 37.93212 | 23.92898 | 273 ft | 86 kts | 36° |
| 2026-05-06 09:03 | 37.93574 | 23.93242 | 283 ft | 45 kts | 37° |
| 2026-05-06 09:03 | 37.93812 | 23.93472 | 280 ft | 40 kts | 45° |
| 2026-05-06 09:03 | 37.93940 | 23.93719 | 283 ft | 12 kts | 66° |
| 2026-05-06 09:04 | 37.93941 | 23.93723 | 282 ft | 0 kts | 66° |
| 2026-05-06 09:04 | 37.93949 | 23.93749 | 282 ft | 8 kts | 72° |
| 2026-05-06 09:04 | 37.93905 | 23.93821 | 283 ft | 14 kts | 181° |
| 2026-05-06 09:05 | 37.93820 | 23.93753 | 282 ft | 17 kts | 217° |
| 2026-05-06 09:05 | 37.93701 | 23.93640 | 280 ft | 25 kts | 217° |
| 2026-05-06 09:05 | 37.93562 | 23.93509 | 279 ft | 24 kts | 217° |
| 2026-05-06 09:05 | 37.93448 | 23.93427 | 278 ft | 13 kts | 165° |
| 2026-05-06 09:06 | 37.93385 | 23.93510 | 278 ft | 14 kts | 127° |
| 2026-05-06 09:06 | 37.93323 | 23.93615 | 278 ft | 15 kts | 127° |
| 2026-05-06 09:06 | 37.93256 | 23.93726 | 280 ft | 17 kts | 127° |
| 2026-05-06 09:06 | 37.93188 | 23.93842 | 282 ft | 16 kts | 126° |
| 2026-05-06 09:07 | 37.93122 | 23.93952 | 279 ft | 16 kts | 126° |
| 2026-05-06 09:07 | 37.93048 | 23.94076 | 280 ft | 19 kts | 127° |
| 2026-05-06 09:07 | 37.92964 | 23.94217 | 281 ft | 19 kts | 127° |
| 2026-05-06 09:07 | 37.92887 | 23.94351 | 284 ft | 19 kts | 116° |
| 2026-05-06 09:08 | 37.92938 | 23.94458 | 286 ft | 15 kts | 36° |
| 2026-05-06 09:08 | 37.93021 | 23.94537 | 283 ft | 16 kts | 37° |
| 2026-05-06 09:08 | 37.93122 | 23.94633 | 286 ft | 20 kts | 37° |
| 2026-05-06 09:08 | 37.93230 | 23.94736 | 289 ft | 19 kts | 37° |
| 2026-05-06 09:09 | 37.93335 | 23.94836 | 287 ft | 19 kts | 37° |
| 2026-05-06 09:09 | 37.93436 | 23.94933 | 290 ft | 18 kts | 36° |
| 2026-05-06 09:09 | 37.93535 | 23.95026 | 292 ft | 17 kts | 37° |
| 2026-05-06 09:09 | 37.93629 | 23.95117 | 295 ft | 17 kts | 37° |
| 2026-05-06 09:10 | 37.93724 | 23.95206 | 294 ft | 18 kts | 37° |
| 2026-05-06 09:10 | 37.93823 | 23.95300 | 294 ft | 15 kts | 36° |
| 2026-05-06 09:10 | 37.93844 | 23.95320 | 294 ft | 0 kts | 36° |
| 2026-05-06 09:10 | 37.93844 | 23.95321 | 297 ft | 1 kts | 36° |
| 2026-05-06 09:11 | 37.93871 | 23.95334 | 293 ft | 8 kts | 4° |
| 2026-05-06 09:11 | 37.93882 | 23.95306 | 297 ft | 7 kts | 256° |
| 2026-05-06 09:11 | 37.93845 | 23.95203 | 293 ft | 18 kts | 229° |
| 2026-05-06 09:11 | 37.93774 | 23.95134 | 293 ft | 12 kts | 215° |
| 2026-05-06 09:12 | 37.93744 | 23.95087 | 295 ft | 2 kts | 286° |
| 2026-05-06 09:12 | 37.93758 | 23.95068 | 295 ft | 6 kts | 311° |
| 2026-05-06 09:12 | 37.93792 | 23.95019 | 293 ft | 5 kts | 311° |
| 2026-05-06 09:12 | 37.93796 | 23.95014 | 292 ft | 0 kts | 311° |